sensor_id;sensor_type;location;lat;lon;timestamp;P1;durP1;ratioP1;P2;durP2;ratioP2
9698;SDS011;10089;47.876;8.346;2024-02-14T00:00:24;3.13;;;1.77;;
9698;SDS011;10089;47.876;8.346;2024-02-14T00:05:19;2.83;;;1.63;;
9698;SDS011;10089;47.876;8.346;2024-02-14T00:07:45;3.67;;;1.65;;
9698;SDS011;10089;47.876;8.346;2024-02-14T00:10:10;2.50;;;2.05;;
9698;SDS011;10089;47.876;8.346;2024-02-14T00:12:36;3.85;;;2.00;;
9698;SDS011;10089;47.876;8.346;2024-02-14T00:15:02;4.43;;;1.95;;
9698;SDS011;10089;47.876;8.346;2024-02-14T00:17:32;2.95;;;2.00;;
9698;SDS011;10089;47.876;8.346;2024-02-14T00:19:58;4.32;;;1.85;;
9698;SDS011;10089;47.876;8.346;2024-02-14T00:22:25;3.22;;;1.88;;
9698;SDS011;10089;47.876;8.346;2024-02-14T00:24:50;2.45;;;1.83;;
9698;SDS011;10089;47.876;8.346;2024-02-14T00:27:16;3.55;;;1.90;;
9698;SDS011;10089;47.876;8.346;2024-02-14T00:29:42;2.35;;;1.77;;
9698;SDS011;10089;47.876;8.346;2024-02-14T00:32:10;3.15;;;1.63;;
9698;SDS011;10089;47.876;8.346;2024-02-14T00:34:38;1.90;;;1.52;;
9698;SDS011;10089;47.876;8.346;2024-02-14T00:37:04;5.03;;;1.90;;
9698;SDS011;10089;47.876;8.346;2024-02-14T00:39:29;4.07;;;1.70;;
9698;SDS011;10089;47.876;8.346;2024-02-14T00:41:55;4.13;;;1.88;;
9698;SDS011;10089;47.876;8.346;2024-02-14T00:44:21;4.97;;;1.52;;
9698;SDS011;10089;47.876;8.346;2024-02-14T00:46:47;3.65;;;1.42;;
9698;SDS011;10089;47.876;8.346;2024-02-14T00:49:13;7.53;;;2.05;;
9698;SDS011;10089;47.876;8.346;2024-02-14T00:51:39;4.68;;;2.20;;
9698;SDS011;10089;47.876;8.346;2024-02-14T00:54:05;3.40;;;1.55;;
9698;SDS011;10089;47.876;8.346;2024-02-14T00:56:33;3.42;;;2.13;;
9698;SDS011;10089;47.876;8.346;2024-02-14T00:58:59;4.03;;;1.77;;
9698;SDS011;10089;47.876;8.346;2024-02-14T01:01:25;5.63;;;1.80;;
9698;SDS011;10089;47.876;8.346;2024-02-14T01:03:51;2.43;;;1.50;;
9698;SDS011;10089;47.876;8.346;2024-02-14T01:06:17;1.75;;;1.38;;
9698;SDS011;10089;47.876;8.346;2024-02-14T01:08:43;3.47;;;1.48;;
9698;SDS011;10089;47.876;8.346;2024-02-14T01:11:09;4.53;;;1.30;;
9698;SDS011;10089;47.876;8.346;2024-02-14T01:13:35;3.35;;;1.50;;
9698;SDS011;10089;47.876;8.346;2024-02-14T01:16:02;4.18;;;1.30;;
9698;SDS011;10089;47.876;8.346;2024-02-14T01:18:29;1.60;;;1.38;;
9698;SDS011;10089;47.876;8.346;2024-02-14T01:20:55;1.65;;;1.30;;
9698;SDS011;10089;47.876;8.346;2024-02-14T01:23:20;3.72;;;1.30;;
9698;SDS011;10089;47.876;8.346;2024-02-14T01:25:46;2.92;;;1.52;;
9698;SDS011;10089;47.876;8.346;2024-02-14T01:28:12;2.53;;;1.30;;
9698;SDS011;10089;47.876;8.346;2024-02-14T01:30:37;4.85;;;1.33;;
9698;SDS011;10089;47.876;8.346;2024-02-14T01:33:03;1.48;;;1.30;;
9698;SDS011;10089;47.876;8.346;2024-02-14T01:35:29;3.58;;;1.80;;
9698;SDS011;10089;47.876;8.346;2024-02-14T01:37:55;3.80;;;1.42;;
9698;SDS011;10089;47.876;8.346;2024-02-14T01:40:20;1.67;;;1.38;;
9698;SDS011;10089;47.876;8.346;2024-02-14T01:42:46;1.15;;;1.05;;
9698;SDS011;10089;47.876;8.346;2024-02-14T01:45:12;1.38;;;1.13;;
9698;SDS011;10089;47.876;8.346;2024-02-14T01:47:38;4.03;;;1.50;;
9698;SDS011;10089;47.876;8.346;2024-02-14T01:50:06;3.00;;;1.35;;
9698;SDS011;10089;47.876;8.346;2024-02-14T01:52:36;5.07;;;1.60;;
9698;SDS011;10089;47.876;8.346;2024-02-14T01:55:05;2.87;;;1.63;;
9698;SDS011;10089;47.876;8.346;2024-02-14T01:57:33;3.13;;;1.88;;
9698;SDS011;10089;47.876;8.346;2024-02-14T02:00:00;1.92;;;1.50;;
9698;SDS011;10089;47.876;8.346;2024-02-14T02:02:33;1.98;;;1.52;;
9698;SDS011;10089;47.876;8.346;2024-02-14T02:05:01;2.13;;;1.10;;
9698;SDS011;10089;47.876;8.346;2024-02-14T02:07:27;1.55;;;1.15;;
9698;SDS011;10089;47.876;8.346;2024-02-14T02:09:53;1.05;;;0.95;;
9698;SDS011;10089;47.876;8.346;2024-02-14T02:12:18;4.72;;;1.38;;
9698;SDS011;10089;47.876;8.346;2024-02-14T02:14:44;2.42;;;1.25;;
9698;SDS011;10089;47.876;8.346;2024-02-14T02:17:10;3.45;;;1.15;;
9698;SDS011;10089;47.876;8.346;2024-02-14T02:19:36;1.23;;;1.13;;
9698;SDS011;10089;47.876;8.346;2024-02-14T02:22:02;2.53;;;1.20;;
9698;SDS011;10089;47.876;8.346;2024-02-14T02:24:29;2.63;;;1.23;;
9698;SDS011;10089;47.876;8.346;2024-02-14T02:26:55;5.22;;;1.30;;
9698;SDS011;10089;47.876;8.346;2024-02-14T02:29:22;3.35;;;1.17;;
9698;SDS011;10089;47.876;8.346;2024-02-14T02:31:47;3.97;;;1.25;;
9698;SDS011;10089;47.876;8.346;2024-02-14T02:34:13;2.53;;;1.30;;
9698;SDS011;10089;47.876;8.346;2024-02-14T02:36:39;5.20;;;1.45;;
9698;SDS011;10089;47.876;8.346;2024-02-14T02:39:06;1.92;;;1.30;;
9698;SDS011;10089;47.876;8.346;2024-02-14T02:41:32;3.10;;;1.50;;
9698;SDS011;10089;47.876;8.346;2024-02-14T02:43:58;1.77;;;1.30;;
9698;SDS011;10089;47.876;8.346;2024-02-14T02:46:24;2.88;;;1.52;;
9698;SDS011;10089;47.876;8.346;2024-02-14T02:48:50;2.95;;;1.48;;
9698;SDS011;10089;47.876;8.346;2024-02-14T02:51:19;2.15;;;1.40;;
9698;SDS011;10089;47.876;8.346;2024-02-14T02:53:45;2.05;;;1.52;;
9698;SDS011;10089;47.876;8.346;2024-02-14T02:56:11;2.33;;;1.30;;
9698;SDS011;10089;47.876;8.346;2024-02-14T02:58:37;2.67;;;1.50;;
9698;SDS011;10089;47.876;8.346;2024-02-14T03:01:07;7.88;;;1.88;;
9698;SDS011;10089;47.876;8.346;2024-02-14T03:03:34;4.32;;;2.10;;
9698;SDS011;10089;47.876;8.346;2024-02-14T03:05:59;5.20;;;1.93;;
9698;SDS011;10089;47.876;8.346;2024-02-14T03:08:28;3.90;;;1.25;;
9698;SDS011;10089;47.876;8.346;2024-02-14T03:10:55;2.72;;;1.40;;
9698;SDS011;10089;47.876;8.346;2024-02-14T03:13:24;4.28;;;1.30;;
9698;SDS011;10089;47.876;8.346;2024-02-14T03:15:51;3.00;;;1.23;;
9698;SDS011;10089;47.876;8.346;2024-02-14T03:18:17;1.90;;;1.13;;
9698;SDS011;10089;47.876;8.346;2024-02-14T03:20:43;3.23;;;1.23;;
9698;SDS011;10089;47.876;8.346;2024-02-14T03:23:08;1.93;;;1.17;;
9698;SDS011;10089;47.876;8.346;2024-02-14T03:25:34;3.33;;;1.53;;
9698;SDS011;10089;47.876;8.346;2024-02-14T03:28:01;4.43;;;1.58;;
9698;SDS011;10089;47.876;8.346;2024-02-14T03:30:32;3.03;;;1.10;;
9698;SDS011;10089;47.876;8.346;2024-02-14T03:32:58;8.47;;;1.80;;
9698;SDS011;10089;47.876;8.346;2024-02-14T03:35:24;6.43;;;1.90;;
9698;SDS011;10089;47.876;8.346;2024-02-14T03:37:51;4.23;;;1.50;;
9698;SDS011;10089;47.876;8.346;2024-02-14T03:40:18;4.03;;;1.50;;
9698;SDS011;10089;47.876;8.346;2024-02-14T03:42:45;5.47;;;1.83;;
9698;SDS011;10089;47.876;8.346;2024-02-14T03:45:11;2.20;;;1.50;;
9698;SDS011;10089;47.876;8.346;2024-02-14T03:47:37;3.77;;;1.57;;
9698;SDS011;10089;47.876;8.346;2024-02-14T03:50:04;2.10;;;1.90;;
9698;SDS011;10089;47.876;8.346;2024-02-14T03:52:32;4.87;;;1.70;;
9698;SDS011;10089;47.876;8.346;2024-02-14T03:54:58;3.47;;;1.70;;
9698;SDS011;10089;47.876;8.346;2024-02-14T03:57:24;4.63;;;1.80;;
9698;SDS011;10089;47.876;8.346;2024-02-14T03:59:53;2.87;;;1.67;;
9698;SDS011;10089;47.876;8.346;2024-02-14T04:02:20;3.63;;;1.60;;
9698;SDS011;10089;47.876;8.346;2024-02-14T04:04:46;3.73;;;1.70;;
9698;SDS011;10089;47.876;8.346;2024-02-14T04:07:12;1.80;;;1.50;;
9698;SDS011;10089;47.876;8.346;2024-02-14T04:09:37;4.40;;;2.17;;
9698;SDS011;10089;47.876;8.346;2024-02-14T04:12:03;2.97;;;2.37;;
9698;SDS011;10089;47.876;8.346;2024-02-14T04:14:30;3.87;;;1.80;;
9698;SDS011;10089;47.876;8.346;2024-02-14T04:16:55;2.13;;;1.67;;
9698;SDS011;10089;47.876;8.346;2024-02-14T04:19:21;2.58;;;1.55;;
9698;SDS011;10089;47.876;8.346;2024-02-14T04:21:46;5.13;;;1.80;;
9698;SDS011;10089;47.876;8.346;2024-02-14T04:24:12;8.70;;;2.13;;
9698;SDS011;10089;47.876;8.346;2024-02-14T04:26:38;3.03;;;1.67;;
9698;SDS011;10089;47.876;8.346;2024-02-14T04:29:04;4.95;;;1.65;;
9698;SDS011;10089;47.876;8.346;2024-02-14T04:31:29;2.40;;;1.90;;
9698;SDS011;10089;47.876;8.346;2024-02-14T04:33:56;3.90;;;1.67;;
9698;SDS011;10089;47.876;8.346;2024-02-14T04:36:22;3.70;;;1.65;;
9698;SDS011;10089;47.876;8.346;2024-02-14T04:38:48;2.33;;;1.80;;
9698;SDS011;10089;47.876;8.346;2024-02-14T04:41:14;3.40;;;1.60;;
9698;SDS011;10089;47.876;8.346;2024-02-14T04:43:40;5.60;;;1.92;;
9698;SDS011;10089;47.876;8.346;2024-02-14T04:46:06;4.47;;;1.73;;
9698;SDS011;10089;47.876;8.346;2024-02-14T04:48:34;2.58;;;1.63;;
9698;SDS011;10089;47.876;8.346;2024-02-14T04:51:03;3.00;;;1.80;;
9698;SDS011;10089;47.876;8.346;2024-02-14T04:53:32;5.23;;;1.90;;
9698;SDS011;10089;47.876;8.346;2024-02-14T04:55:58;8.60;;;1.67;;
9698;SDS011;10089;47.876;8.346;2024-02-14T04:58:24;3.45;;;1.20;;
9698;SDS011;10089;47.876;8.346;2024-02-14T05:00:51;4.07;;;1.40;;
9698;SDS011;10089;47.876;8.346;2024-02-14T05:03:17;3.97;;;1.40;;
9698;SDS011;10089;47.876;8.346;2024-02-14T05:05:42;3.55;;;1.73;;
9698;SDS011;10089;47.876;8.346;2024-02-14T05:08:08;1.95;;;1.15;;
9698;SDS011;10089;47.876;8.346;2024-02-14T05:10:33;1.70;;;1.33;;
9698;SDS011;10089;47.876;8.346;2024-02-14T05:12:59;2.55;;;1.83;;
9698;SDS011;10089;47.876;8.346;2024-02-14T05:15:25;1.73;;;1.33;;
9698;SDS011;10089;47.876;8.346;2024-02-14T05:17:51;3.63;;;1.20;;
9698;SDS011;10089;47.876;8.346;2024-02-14T05:20:17;2.65;;;1.13;;
9698;SDS011;10089;47.876;8.346;2024-02-14T05:22:43;2.13;;;1.20;;
9698;SDS011;10089;47.876;8.346;2024-02-14T05:25:09;3.63;;;1.30;;
9698;SDS011;10089;47.876;8.346;2024-02-14T05:27:37;4.53;;;1.40;;
9698;SDS011;10089;47.876;8.346;2024-02-14T05:30:03;4.40;;;1.65;;
9698;SDS011;10089;47.876;8.346;2024-02-14T05:32:36;2.38;;;1.42;;
9698;SDS011;10089;47.876;8.346;2024-02-14T05:35:01;1.80;;;1.10;;
9698;SDS011;10089;47.876;8.346;2024-02-14T05:37:30;1.42;;;1.10;;
9698;SDS011;10089;47.876;8.346;2024-02-14T05:39:56;1.42;;;1.08;;
9698;SDS011;10089;47.876;8.346;2024-02-14T05:42:22;5.72;;;1.80;;
9698;SDS011;10089;47.876;8.346;2024-02-14T05:44:48;4.55;;;2.15;;
9698;SDS011;10089;47.876;8.346;2024-02-14T05:47:13;5.55;;;1.95;;
9698;SDS011;10089;47.876;8.346;2024-02-14T05:49:39;7.63;;;1.48;;
9698;SDS011;10089;47.876;8.346;2024-02-14T05:52:06;4.82;;;1.55;;
9698;SDS011;10089;47.876;8.346;2024-02-14T05:54:32;2.37;;;1.43;;
9698;SDS011;10089;47.876;8.346;2024-02-14T05:56:57;2.25;;;1.30;;
9698;SDS011;10089;47.876;8.346;2024-02-14T05:59:23;6.50;;;1.60;;
9698;SDS011;10089;47.876;8.346;2024-02-14T06:01:48;3.30;;;1.57;;
9698;SDS011;10089;47.876;8.346;2024-02-14T06:04:14;2.10;;;1.40;;
9698;SDS011;10089;47.876;8.346;2024-02-14T06:06:40;5.10;;;1.73;;
9698;SDS011;10089;47.876;8.346;2024-02-14T06:09:05;3.65;;;1.80;;
9698;SDS011;10089;47.876;8.346;2024-02-14T06:11:35;3.40;;;1.70;;
9698;SDS011;10089;47.876;8.346;2024-02-14T06:14:04;2.40;;;1.60;;
9698;SDS011;10089;47.876;8.346;2024-02-14T06:16:30;2.90;;;1.50;;
9698;SDS011;10089;47.876;8.346;2024-02-14T06:18:56;2.42;;;1.63;;
9698;SDS011;10089;47.876;8.346;2024-02-14T06:21:21;4.05;;;1.63;;
9698;SDS011;10089;47.876;8.346;2024-02-14T06:23:47;3.92;;;1.48;;
9698;SDS011;10089;47.876;8.346;2024-02-14T06:26:12;2.00;;;1.60;;
9698;SDS011;10089;47.876;8.346;2024-02-14T06:28:39;4.10;;;1.65;;
9698;SDS011;10089;47.876;8.346;2024-02-14T06:31:05;3.95;;;1.60;;
9698;SDS011;10089;47.876;8.346;2024-02-14T06:33:30;2.15;;;1.70;;
9698;SDS011;10089;47.876;8.346;2024-02-14T06:35:56;3.50;;;2.10;;
9698;SDS011;10089;47.876;8.346;2024-02-14T06:38:22;5.30;;;2.03;;
9698;SDS011;10089;47.876;8.346;2024-02-14T06:40:47;2.80;;;1.63;;
9698;SDS011;10089;47.876;8.346;2024-02-14T06:43:14;3.42;;;1.83;;
9698;SDS011;10089;47.876;8.346;2024-02-14T06:45:40;4.85;;;2.03;;
9698;SDS011;10089;47.876;8.346;2024-02-14T06:48:05;3.00;;;1.67;;
9698;SDS011;10089;47.876;8.346;2024-02-14T06:50:33;4.13;;;2.28;;
9698;SDS011;10089;47.876;8.346;2024-02-14T06:52:58;3.65;;;2.30;;
9698;SDS011;10089;47.876;8.346;2024-02-14T06:55:25;2.95;;;2.30;;
9698;SDS011;10089;47.876;8.346;2024-02-14T06:57:51;5.82;;;2.30;;
9698;SDS011;10089;47.876;8.346;2024-02-14T07:00:17;4.00;;;2.28;;
9698;SDS011;10089;47.876;8.346;2024-02-14T07:02:43;2.70;;;2.13;;
9698;SDS011;10089;47.876;8.346;2024-02-14T07:05:12;3.23;;;2.20;;
9698;SDS011;10089;47.876;8.346;2024-02-14T07:07:39;4.60;;;2.50;;
9698;SDS011;10089;47.876;8.346;2024-02-14T07:10:05;4.55;;;3.15;;
9698;SDS011;10089;47.876;8.346;2024-02-14T07:12:32;7.28;;;3.25;;
9698;SDS011;10089;47.876;8.346;2024-02-14T07:14:57;6.40;;;2.60;;
9698;SDS011;10089;47.876;8.346;2024-02-14T07:17:23;5.67;;;2.33;;
9698;SDS011;10089;47.876;8.346;2024-02-14T07:19:49;3.73;;;2.30;;
9698;SDS011;10089;47.876;8.346;2024-02-14T07:22:15;5.33;;;2.80;;
9698;SDS011;10089;47.876;8.346;2024-02-14T07:24:43;9.15;;;2.95;;
9698;SDS011;10089;47.876;8.346;2024-02-14T07:27:08;2.53;;;2.22;;
9698;SDS011;10089;47.876;8.346;2024-02-14T07:29:34;5.70;;;2.92;;
9698;SDS011;10089;47.876;8.346;2024-02-14T07:32:01;3.27;;;2.57;;
9698;SDS011;10089;47.876;8.346;2024-02-14T07:34:27;3.45;;;2.67;;
9698;SDS011;10089;47.876;8.346;2024-02-14T07:36:53;4.13;;;2.67;;
9698;SDS011;10089;47.876;8.346;2024-02-14T07:39:18;5.30;;;2.92;;
9698;SDS011;10089;47.876;8.346;2024-02-14T07:41:44;3.40;;;2.65;;
9698;SDS011;10089;47.876;8.346;2024-02-14T07:44:10;3.50;;;2.70;;
9698;SDS011;10089;47.876;8.346;2024-02-14T07:46:35;5.32;;;3.45;;
9698;SDS011;10089;47.876;8.346;2024-02-14T07:49:01;6.63;;;3.72;;
9698;SDS011;10089;47.876;8.346;2024-02-14T07:51:26;6.93;;;3.10;;
9698;SDS011;10089;47.876;8.346;2024-02-14T07:53:53;4.65;;;2.90;;
9698;SDS011;10089;47.876;8.346;2024-02-14T07:56:19;6.53;;;3.60;;
9698;SDS011;10089;47.876;8.346;2024-02-14T07:58:45;4.73;;;2.70;;
9698;SDS011;10089;47.876;8.346;2024-02-14T08:01:11;3.70;;;3.10;;
9698;SDS011;10089;47.876;8.346;2024-02-14T08:03:36;6.38;;;2.75;;
9698;SDS011;10089;47.876;8.346;2024-02-14T08:06:02;5.10;;;3.58;;
9698;SDS011;10089;47.876;8.346;2024-02-14T08:08:27;3.03;;;1.77;;
9698;SDS011;10089;47.876;8.346;2024-02-14T08:10:53;5.38;;;1.30;;
9698;SDS011;10089;47.876;8.346;2024-02-14T08:13:19;1.90;;;0.90;;
9698;SDS011;10089;47.876;8.346;2024-02-14T08:15:45;2.30;;;0.90;;
9698;SDS011;10089;47.876;8.346;2024-02-14T08:18:11;1.05;;;0.95;;
9698;SDS011;10089;47.876;8.346;2024-02-14T08:20:37;1.98;;;0.80;;
9698;SDS011;10089;47.876;8.346;2024-02-14T08:23:03;2.88;;;1.83;;
9698;SDS011;10089;47.876;8.346;2024-02-14T08:25:29;1.70;;;1.40;;
9698;SDS011;10089;47.876;8.346;2024-02-14T08:27:55;0.70;;;0.70;;
9698;SDS011;10089;47.876;8.346;2024-02-14T08:30:21;0.75;;;0.75;;
9698;SDS011;10089;47.876;8.346;2024-02-14T08:32:46;0.85;;;0.85;;
9698;SDS011;10089;47.876;8.346;2024-02-14T08:35:12;0.93;;;0.80;;
9698;SDS011;10089;47.876;8.346;2024-02-14T08:37:39;0.80;;;0.80;;
9698;SDS011;10089;47.876;8.346;2024-02-14T08:40:05;9.02;;;1.40;;
9698;SDS011;10089;47.876;8.346;2024-02-14T08:42:35;0.95;;;0.88;;
9698;SDS011;10089;47.876;8.346;2024-02-14T08:45:01;0.95;;;0.82;;
9698;SDS011;10089;47.876;8.346;2024-02-14T08:47:26;2.08;;;1.02;;
9698;SDS011;10089;47.876;8.346;2024-02-14T08:49:52;0.93;;;0.80;;
9698;SDS011;10089;47.876;8.346;2024-02-14T08:52:18;1.05;;;0.95;;
9698;SDS011;10089;47.876;8.346;2024-02-14T08:54:43;1.52;;;0.93;;
9698;SDS011;10089;47.876;8.346;2024-02-14T08:57:09;1.17;;;1.00;;
9698;SDS011;10089;47.876;8.346;2024-02-14T08:59:35;0.90;;;0.90;;
9698;SDS011;10089;47.876;8.346;2024-02-14T09:02:00;1.60;;;1.00;;
9698;SDS011;10089;47.876;8.346;2024-02-14T09:04:26;1.08;;;0.98;;
9698;SDS011;10089;47.876;8.346;2024-02-14T09:06:52;1.40;;;0.80;;
9698;SDS011;10089;47.876;8.346;2024-02-14T09:09:18;1.63;;;0.80;;
9698;SDS011;10089;47.876;8.346;2024-02-14T09:11:44;2.20;;;0.77;;
9698;SDS011;10089;47.876;8.346;2024-02-14T09:14:14;0.88;;;0.80;;
9698;SDS011;10089;47.876;8.346;2024-02-14T09:16:40;1.40;;;0.80;;
9698;SDS011;10089;47.876;8.346;2024-02-14T09:19:05;1.00;;;0.90;;
9698;SDS011;10089;47.876;8.346;2024-02-14T09:21:33;0.82;;;0.82;;
9698;SDS011;10089;47.876;8.346;2024-02-14T09:24:03;1.60;;;0.80;;
9698;SDS011;10089;47.876;8.346;2024-02-14T09:26:29;1.23;;;1.13;;
9698;SDS011;10089;47.876;8.346;2024-02-14T09:28:55;3.33;;;0.80;;
9698;SDS011;10089;47.876;8.346;2024-02-14T09:31:21;0.68;;;0.68;;
9698;SDS011;10089;47.876;8.346;2024-02-14T09:33:47;2.65;;;1.10;;
9698;SDS011;10089;47.876;8.346;2024-02-14T09:36:14;0.70;;;0.63;;
9698;SDS011;10089;47.876;8.346;2024-02-14T09:38:40;2.17;;;1.20;;
9698;SDS011;10089;47.876;8.346;2024-02-14T09:41:15;1.10;;;0.90;;
9698;SDS011;10089;47.876;8.346;2024-02-14T09:43:51;3.88;;;0.88;;
9698;SDS011;10089;47.876;8.346;2024-02-14T09:46:17;0.65;;;0.65;;
9698;SDS011;10089;47.876;8.346;2024-02-14T09:48:43;0.50;;;0.50;;
9698;SDS011;10089;47.876;8.346;2024-02-14T09:51:12;1.33;;;0.70;;
9698;SDS011;10089;47.876;8.346;2024-02-14T09:53:41;1.25;;;0.90;;
9698;SDS011;10089;47.876;8.346;2024-02-14T09:56:10;0.80;;;0.80;;
9698;SDS011;10089;47.876;8.346;2024-02-14T09:58:37;2.47;;;0.88;;
9698;SDS011;10089;47.876;8.346;2024-02-14T10:01:03;2.38;;;0.90;;
9698;SDS011;10089;47.876;8.346;2024-02-14T10:03:29;2.00;;;1.45;;
9698;SDS011;10089;47.876;8.346;2024-02-14T10:05:55;0.73;;;0.70;;
9698;SDS011;10089;47.876;8.346;2024-02-14T10:08:21;0.45;;;0.45;;
9698;SDS011;10089;47.876;8.346;2024-02-14T10:10:47;1.00;;;0.95;;
9698;SDS011;10089;47.876;8.346;2024-02-14T10:13:15;0.80;;;0.80;;
9698;SDS011;10089;47.876;8.346;2024-02-14T10:15:41;1.05;;;0.93;;
9698;SDS011;10089;47.876;8.346;2024-02-14T10:18:07;0.63;;;0.60;;
9698;SDS011;10089;47.876;8.346;2024-02-14T10:20:34;1.45;;;0.85;;
9698;SDS011;10089;47.876;8.346;2024-02-14T10:23:06;1.48;;;0.90;;
9698;SDS011;10089;47.876;8.346;2024-02-14T10:25:36;1.00;;;0.65;;
9698;SDS011;10089;47.876;8.346;2024-02-14T10:28:04;0.82;;;0.77;;
9698;SDS011;10089;47.876;8.346;2024-02-14T10:30:33;0.82;;;0.70;;
9698;SDS011;10089;47.876;8.346;2024-02-14T10:33:02;2.15;;;1.30;;
9698;SDS011;10089;47.876;8.346;2024-02-14T10:35:28;3.25;;;1.67;;
9698;SDS011;10089;47.876;8.346;2024-02-14T10:37:57;1.00;;;0.90;;
9698;SDS011;10089;47.876;8.346;2024-02-14T10:40:27;2.22;;;0.70;;
9698;SDS011;10089;47.876;8.346;2024-02-14T10:42:53;0.68;;;0.60;;
9698;SDS011;10089;47.876;8.346;2024-02-14T10:45:20;0.70;;;0.70;;
9698;SDS011;10089;47.876;8.346;2024-02-14T10:47:46;0.60;;;0.60;;
9698;SDS011;10089;47.876;8.346;2024-02-14T10:50:14;2.13;;;0.50;;
9698;SDS011;10089;47.876;8.346;2024-02-14T10:52:41;0.57;;;0.50;;
9698;SDS011;10089;47.876;8.346;2024-02-14T10:55:07;0.60;;;0.60;;
9698;SDS011;10089;47.876;8.346;2024-02-14T10:57:34;0.68;;;0.68;;
9698;SDS011;10089;47.876;8.346;2024-02-14T11:00:01;1.17;;;0.82;;
9698;SDS011;10089;47.876;8.346;2024-02-14T11:02:32;0.65;;;0.65;;
9698;SDS011;10089;47.876;8.346;2024-02-14T11:04:58;0.70;;;0.70;;
9698;SDS011;10089;47.876;8.346;2024-02-14T11:07:27;0.70;;;0.70;;
9698;SDS011;10089;47.876;8.346;2024-02-14T11:10:27;1.05;;;0.88;;
9698;SDS011;10089;47.876;8.346;2024-02-14T11:12:47;0.70;;;0.70;;
9698;SDS011;10089;47.876;8.346;2024-02-14T11:17:43;2.92;;;2.20;;
9698;SDS011;10089;47.876;8.346;2024-02-14T11:20:13;0.65;;;0.60;;
9698;SDS011;10089;47.876;8.346;2024-02-14T11:22:57;1.30;;;1.10;;
9698;SDS011;10089;47.876;8.346;2024-02-14T11:25:28;0.85;;;0.82;;
9698;SDS011;10089;47.876;8.346;2024-02-14T11:27:56;0.75;;;0.75;;
9698;SDS011;10089;47.876;8.346;2024-02-14T11:30:29;1.05;;;0.77;;
9698;SDS011;10089;47.876;8.346;2024-02-14T11:33:08;3.88;;;0.95;;
9698;SDS011;10089;47.876;8.346;2024-02-14T11:35:44;1.15;;;0.75;;
9698;SDS011;10089;47.876;8.346;2024-02-14T11:38:18;0.93;;;0.70;;
9698;SDS011;10089;47.876;8.346;2024-02-14T11:40:48;0.63;;;0.63;;
9698;SDS011;10089;47.876;8.346;2024-02-14T11:43:18;0.68;;;0.63;;
9698;SDS011;10089;47.876;8.346;2024-02-14T11:45:48;0.70;;;0.70;;
9698;SDS011;10089;47.876;8.346;2024-02-14T11:48:20;0.68;;;0.68;;
9698;SDS011;10089;47.876;8.346;2024-02-14T11:50:48;0.43;;;0.43;;
9698;SDS011;10089;47.876;8.346;2024-02-14T11:53:14;2.92;;;0.90;;
9698;SDS011;10089;47.876;8.346;2024-02-14T11:55:44;0.60;;;0.60;;
9698;SDS011;10089;47.876;8.346;2024-02-14T11:58:12;0.50;;;0.50;;
9698;SDS011;10089;47.876;8.346;2024-02-14T12:00:43;0.80;;;0.80;;
9698;SDS011;10089;47.876;8.346;2024-02-14T12:13:30;0.73;;;0.57;;
9698;SDS011;10089;47.876;8.346;2024-02-14T12:16:03;0.65;;;0.63;;
9698;SDS011;10089;47.876;8.346;2024-02-14T12:18:31;0.80;;;0.80;;
9698;SDS011;10089;47.876;8.346;2024-02-14T12:21:03;0.55;;;0.55;;
9698;SDS011;10089;47.876;8.346;2024-02-14T12:23:32;0.63;;;0.63;;
9698;SDS011;10089;47.876;8.346;2024-02-14T12:30:04;6.97;;;1.52;;
9698;SDS011;10089;47.876;8.346;2024-02-14T12:33:39;1.73;;;1.00;;
9698;SDS011;10089;47.876;8.346;2024-02-14T12:36:07;0.68;;;0.68;;
9698;SDS011;10089;47.876;8.346;2024-02-14T12:38:33;0.93;;;0.73;;
9698;SDS011;10089;47.876;8.346;2024-02-14T12:40:58;0.50;;;0.50;;
9698;SDS011;10089;47.876;8.346;2024-02-14T12:43:26;1.50;;;1.27;;
9698;SDS011;10089;47.876;8.346;2024-02-14T12:45:52;0.98;;;0.90;;
9698;SDS011;10089;47.876;8.346;2024-02-14T12:48:24;0.75;;;0.50;;
9698;SDS011;10089;47.876;8.346;2024-02-14T12:50:53;0.98;;;0.80;;
9698;SDS011;10089;47.876;8.346;2024-02-14T12:53:19;1.02;;;0.70;;
9698;SDS011;10089;47.876;8.346;2024-02-14T12:55:46;0.50;;;0.50;;
9698;SDS011;10089;47.876;8.346;2024-02-14T12:58:12;0.60;;;0.60;;
9698;SDS011;10089;47.876;8.346;2024-02-14T13:00:38;0.65;;;0.65;;
9698;SDS011;10089;47.876;8.346;2024-02-14T13:03:03;0.80;;;0.57;;
9698;SDS011;10089;47.876;8.346;2024-02-14T13:05:30;0.88;;;0.60;;
9698;SDS011;10089;47.876;8.346;2024-02-14T13:07:55;3.80;;;1.73;;
9698;SDS011;10089;47.876;8.346;2024-02-14T13:10:21;0.90;;;0.80;;
9698;SDS011;10089;47.876;8.346;2024-02-14T13:12:47;0.80;;;0.80;;
9698;SDS011;10089;47.876;8.346;2024-02-14T13:15:13;2.17;;;0.90;;
9698;SDS011;10089;47.876;8.346;2024-02-14T13:17:39;1.02;;;0.93;;
9698;SDS011;10089;47.876;8.346;2024-02-14T13:20:04;0.80;;;0.70;;
9698;SDS011;10089;47.876;8.346;2024-02-14T13:22:31;1.52;;;1.13;;
9698;SDS011;10089;47.876;8.346;2024-02-14T13:24:58;0.70;;;0.70;;
9698;SDS011;10089;47.876;8.346;2024-02-14T13:27:25;1.63;;;1.33;;
9698;SDS011;10089;47.876;8.346;2024-02-14T13:29:51;0.88;;;0.68;;
9698;SDS011;10089;47.876;8.346;2024-02-14T13:32:17;1.38;;;0.65;;
9698;SDS011;10089;47.876;8.346;2024-02-14T13:34:42;0.68;;;0.68;;
9698;SDS011;10089;47.876;8.346;2024-02-14T13:37:09;0.68;;;0.68;;
9698;SDS011;10089;47.876;8.346;2024-02-14T13:39:34;1.10;;;1.00;;
9698;SDS011;10089;47.876;8.346;2024-02-14T13:42:00;0.65;;;0.65;;
9698;SDS011;10089;47.876;8.346;2024-02-14T13:44:26;2.60;;;0.98;;
9698;SDS011;10089;47.876;8.346;2024-02-14T13:46:52;0.63;;;0.63;;
9698;SDS011;10089;47.876;8.346;2024-02-14T13:49:19;0.75;;;0.75;;
9698;SDS011;10089;47.876;8.346;2024-02-14T13:51:48;0.57;;;0.57;;
9698;SDS011;10089;47.876;8.346;2024-02-14T13:54:16;0.80;;;0.60;;
9698;SDS011;10089;47.876;8.346;2024-02-14T13:56:42;0.60;;;0.60;;
9698;SDS011;10089;47.876;8.346;2024-02-14T13:59:08;2.15;;;0.80;;
9698;SDS011;10089;47.876;8.346;2024-02-14T14:01:34;0.80;;;0.80;;
9698;SDS011;10089;47.876;8.346;2024-02-14T14:03:59;1.42;;;1.33;;
9698;SDS011;10089;47.876;8.346;2024-02-14T14:06:25;0.88;;;0.88;;
9698;SDS011;10089;47.876;8.346;2024-02-14T14:08:51;1.90;;;1.40;;
9698;SDS011;10089;47.876;8.346;2024-02-14T14:11:16;2.45;;;1.10;;
9698;SDS011;10089;47.876;8.346;2024-02-14T14:13:42;1.83;;;1.30;;
9698;SDS011;10089;47.876;8.346;2024-02-14T14:16:08;1.55;;;0.98;;
9698;SDS011;10089;47.876;8.346;2024-02-14T14:18:36;1.00;;;0.90;;
9698;SDS011;10089;47.876;8.346;2024-02-14T14:21:02;1.77;;;1.42;;
9698;SDS011;10089;47.876;8.346;2024-02-14T14:23:28;2.40;;;0.70;;
9698;SDS011;10089;47.876;8.346;2024-02-14T14:25:58;1.90;;;0.70;;
9698;SDS011;10089;47.876;8.346;2024-02-14T14:28:24;1.38;;;1.27;;
9698;SDS011;10089;47.876;8.346;2024-02-14T14:30:50;1.30;;;1.10;;
9698;SDS011;10089;47.876;8.346;2024-02-14T14:33:16;1.27;;;0.80;;
9698;SDS011;10089;47.876;8.346;2024-02-14T14:35:42;1.10;;;0.80;;
9698;SDS011;10089;47.876;8.346;2024-02-14T14:38:08;1.40;;;0.75;;
9698;SDS011;10089;47.876;8.346;2024-02-14T14:40:33;1.58;;;1.23;;
9698;SDS011;10089;47.876;8.346;2024-02-14T14:42:59;0.60;;;0.60;;
9698;SDS011;10089;47.876;8.346;2024-02-14T14:45:25;1.55;;;1.20;;
9698;SDS011;10089;47.876;8.346;2024-02-14T14:47:53;1.08;;;0.95;;
9698;SDS011;10089;47.876;8.346;2024-02-14T14:50:18;1.15;;;1.05;;
9698;SDS011;10089;47.876;8.346;2024-02-14T14:52:44;1.63;;;1.48;;
9698;SDS011;10089;47.876;8.346;2024-02-14T14:55:10;1.10;;;1.00;;
9698;SDS011;10089;47.876;8.346;2024-02-14T14:57:36;2.67;;;0.80;;
9698;SDS011;10089;47.876;8.346;2024-02-14T15:00:08;1.33;;;0.90;;
9698;SDS011;10089;47.876;8.346;2024-02-14T15:02:42;1.58;;;1.20;;
9698;SDS011;10089;47.876;8.346;2024-02-14T15:05:11;1.73;;;1.15;;
9698;SDS011;10089;47.876;8.346;2024-02-14T15:07:37;3.00;;;1.10;;
9698;SDS011;10089;47.876;8.346;2024-02-14T15:10:04;1.92;;;1.50;;
9698;SDS011;10089;47.876;8.346;2024-02-14T15:12:31;1.27;;;1.10;;
9698;SDS011;10089;47.876;8.346;2024-02-14T15:14:59;1.70;;;1.60;;
9698;SDS011;10089;47.876;8.346;2024-02-14T15:17:24;2.83;;;1.23;;